createdAt,value
2022-10-05T00:07:52.264Z,93.72
2022-10-05T00:10:29.415Z,93.59
2022-10-05T00:16:24.354Z,92.99
2022-10-05T00:19:11.612Z,93.60
2022-10-05T00:25:24.481Z,93.99
2022-10-05T00:27:56.068Z,94.06
2022-10-05T00:30:25.176Z,93.95
2022-10-05T00:33:20.642Z,93.96
2022-10-05T00:35:49.581Z,93.69
2022-10-05T00:38:22.232Z,93.65
2022-10-05T00:41:28.151Z,94.75
2022-10-05T00:44:13.273Z,93.77
2022-10-05T00:47:16.212Z,95.13
2022-10-05T00:53:26.383Z,94.68
2022-10-05T01:06:23.151Z,94.41
2022-10-05T01:09:43.211Z,94.26
2022-10-05T01:12:18.775Z,94.43
2022-10-05T01:18:51.263Z,93.69
2022-10-05T01:21:37.285Z,93.61
2022-10-05T01:24:32.196Z,94.35
2022-10-05T01:27:15.791Z,93.46
2022-10-05T01:30:21.591Z,93.86
2022-10-05T01:33:19.176Z,93.18
2022-10-05T01:36:16.979Z,93.83
2022-10-05T01:38:50.851Z,94.84
2022-10-05T01:41:49.266Z,94.39
2022-10-05T01:44:20.575Z,93.86
2022-10-05T01:47:03.291Z,93.53
2022-10-05T01:49:33.086Z,93.84
2022-10-05T02:02:58.304Z,93.05
2022-10-05T02:15:22.822Z,94.00
2022-10-05T02:18:08.992Z,93.00
2022-10-05T02:20:54.774Z,92.88
2022-10-05T02:23:25.487Z,93.72
2022-10-05T02:25:56.458Z,93.87
2022-10-05T02:28:54.738Z,93.55
2022-10-05T02:31:45.963Z,93.89
2022-10-05T02:34:37.456Z,94.76
2022-10-05T02:40:31.803Z,94.95
2022-10-05T02:53:19.551Z,93.99
2022-10-05T03:02:48.355Z,93.30
2022-10-05T03:05:23.143Z,93.89
2022-10-05T03:08:27.873Z,94.12
2022-10-05T03:11:17.193Z,92.91
2022-10-05T03:13:46.910Z,93.44
2022-10-05T03:16:40.257Z,92.70
2022-10-05T03:19:31.651Z,93.36
2022-10-05T03:29:02.104Z,93.56
2022-10-05T03:31:50.476Z,93.22
2022-10-05T03:34:18.233Z,92.51
2022-10-05T03:36:49.275Z,93.24
2022-10-05T03:39:53.472Z,92.58
2022-10-05T03:42:57.413Z,93.20
2022-10-05T03:45:36.643Z,92.75
2022-10-05T03:48:28.768Z,92.53
2022-10-05T03:51:15.686Z,91.99
2022-10-05T03:54:07.102Z,93.01
2022-10-05T03:56:55.614Z,92.97
2022-10-05T03:59:41.572Z,92.37
2022-10-05T04:02:15.958Z,93.03
2022-10-05T04:04:47.661Z,92.57
2022-10-05T04:07:34.506Z,93.09
2022-10-05T04:10:25.891Z,92.16
2022-10-05T04:13:03.222Z,92.86
2022-10-05T04:55:28.538Z,91.87
2022-10-05T04:58:15.153Z,90.45
2022-10-05T05:01:25.096Z,89.81
2022-10-05T05:07:56.427Z,86.96
2022-10-05T05:10:49.743Z,83.71
2022-10-05T05:13:42.155Z,82.13
2022-10-05T05:19:50.842Z,78.27
2022-10-05T05:22:42.502Z,77.34
2022-10-05T05:28:42.809Z,72.85
2022-10-05T05:35:00.903Z,69.63
2022-10-05T05:44:28.044Z,62.74
2022-10-05T05:47:10.568Z,61.83
2022-10-05T05:49:40.556Z,59.24
2022-10-05T05:52:20.504Z,59.60
2022-10-05T05:54:54.963Z,57.67
2022-10-05T05:57:42.043Z,57.38
2022-10-05T06:00:08.957Z,56.69
2022-10-05T06:02:48.158Z,56.06
2022-10-05T06:05:24.331Z,56.23
2022-10-05T06:07:53.095Z,55.19
2022-10-05T06:10:22.900Z,56.28
2022-10-05T06:13:01.814Z,56.30
2022-10-05T06:15:32.714Z,55.77
2022-10-05T06:18:03.157Z,57.03
2022-10-05T06:20:39.562Z,55.44
2022-10-05T06:23:12.590Z,57.00
2022-10-05T06:25:52.758Z,59.77
2022-10-05T06:28:19.842Z,60.29
2022-10-05T06:31:01.047Z,60.30
2022-10-05T06:33:39.271Z,57.67
2022-10-05T06:36:09.028Z,58.92
2022-10-05T06:38:39.176Z,57.15
2022-10-05T06:41:13.561Z,57.69
2022-10-05T06:43:46.787Z,56.47
2022-10-05T06:46:18.656Z,57.66
2022-10-05T06:49:11.891Z,59.04
2022-10-05T06:55:18.421Z,57.97
2022-10-05T06:58:11.293Z,58.66
2022-10-05T07:00:46.460Z,58.43
2022-10-05T07:03:22.278Z,59.04
2022-10-05T07:05:59.951Z,56.58
2022-10-05T07:08:26.863Z,57.20
2022-10-05T07:11:03.497Z,57.97
2022-10-05T07:13:33.064Z,57.91
2022-10-05T07:15:59.714Z,58.16
2022-10-05T07:18:44.948Z,57.48
2022-10-05T07:21:14.656Z,54.98
2022-10-05T07:23:53.085Z,53.62
2022-10-05T07:26:29.079Z,52.78
2022-10-05T07:29:08.065Z,52.56
2022-10-05T07:31:58.472Z,53.81
2022-10-05T07:34:39.331Z,54.39
2022-10-05T07:37:30.651Z,54.52
2022-10-05T07:40:18.271Z,53.04
2022-10-05T07:43:04.050Z,55.94
2022-10-05T07:45:36.919Z,54.78
2022-10-05T07:48:12.811Z,52.09
2022-10-05T07:50:46.414Z,54.13
2022-10-05T07:53:21.214Z,52.38
2022-10-05T07:55:51.685Z,52.31
2022-10-05T07:58:31.606Z,51.56
2022-10-05T08:01:11.434Z,52.99
2022-10-05T08:03:43.825Z,52.63
2022-10-05T08:06:18.453Z,49.42
2022-10-05T08:11:15.172Z,49.71
2022-10-05T08:13:51.949Z,49.57
2022-10-05T08:16:19.436Z,50.90
2022-10-05T08:18:59.103Z,51.72
2022-10-05T08:21:39.031Z,49.02
2022-10-05T08:24:26.099Z,47.15
2022-10-05T08:27:02.286Z,46.35
2022-10-05T08:29:37.928Z,46.87
2022-10-05T08:32:06.497Z,47.47
2022-10-05T08:34:45.949Z,45.27
2022-10-05T08:37:24.223Z,44.35
2022-10-05T08:39:56.122Z,44.63
2022-10-05T08:42:42.088Z,45.17
2022-10-05T08:45:25.482Z,43.93
2022-10-05T08:48:18.873Z,44.29
2022-10-05T08:51:04.482Z,44.59
2022-10-05T08:53:43.401Z,43.62
2022-10-05T08:56:29.189Z,42.51
2022-10-05T08:59:10.186Z,43.47
2022-10-05T09:01:55.702Z,44.40
2022-10-05T09:04:33.366Z,43.42
2022-10-05T09:07:08.894Z,43.19
2022-10-05T09:09:56.258Z,41.50
2022-10-05T09:12:46.504Z,41.46
2022-10-05T09:15:32.008Z,41.18
2022-10-05T09:18:17.638Z,40.78
2022-10-05T09:20:47.287Z,41.92
2022-10-05T09:23:34.406Z,44.27
2022-10-05T09:26:07.575Z,42.68
2022-10-05T09:28:42.500Z,42.93
2022-10-05T09:31:15.457Z,41.38
2022-10-05T09:33:45.695Z,41.37
2022-10-05T09:36:28.315Z,42.20
2022-10-05T09:39:13.525Z,41.13
2022-10-05T09:41:55.586Z,39.51
2022-10-05T09:44:41.560Z,41.74
2022-10-05T09:47:27.253Z,42.91
2022-10-05T09:49:56.881Z,43.88
2022-10-05T09:52:42.310Z,45.31
2022-10-05T09:55:21.307Z,47.33
2022-10-05T09:57:53.212Z,46.59
2022-10-05T10:00:39.196Z,48.35
2022-10-05T10:03:13.874Z,47.57
2022-10-05T10:05:52.926Z,46.45
2022-10-05T10:08:32.578Z,44.55
2022-10-05T10:11:07.773Z,45.20
2022-10-05T10:13:56.019Z,44.47
2022-10-05T10:16:37.155Z,43.66
2022-10-05T10:19:15.625Z,44.74
2022-10-05T10:21:55.037Z,44.21
2022-10-05T10:24:32.323Z,43.84
2022-10-05T10:27:11.055Z,44.35
2022-10-05T10:29:46.434Z,42.33
2022-10-05T10:32:16.352Z,43.04
2022-10-05T10:34:46.060Z,42.99
2022-10-05T10:37:31.516Z,43.28
2022-10-05T10:40:13.127Z,44.23
2022-10-05T10:42:52.024Z,46.63
2022-10-05T10:45:27.614Z,42.93
2022-10-05T10:47:54.759Z,46.04
2022-10-05T10:50:23.635Z,42.48
2022-10-05T10:53:10.605Z,43.93
2022-10-05T10:55:52.041Z,45.48
2022-10-05T10:58:25.014Z,43.12
2022-10-05T11:00:54.886Z,41.79
2022-10-05T11:03:40.403Z,45.49
2022-10-05T11:06:10.136Z,43.28
2022-10-05T11:08:36.894Z,43.22
2022-10-05T11:11:31.215Z,41.77
2022-10-05T11:14:02.767Z,42.89
2022-10-05T11:16:29.507Z,43.67
2022-10-05T11:19:12.391Z,39.33
2022-10-05T11:21:52.138Z,38.45
2022-10-05T11:24:39.052Z,37.83
2022-10-05T11:30:06.421Z,40.14
2022-10-05T11:32:36.509Z,37.03
2022-10-05T11:35:24.743Z,36.72
2022-10-05T11:37:52.006Z,37.16
2022-10-05T11:40:37.054Z,37.11
2022-10-05T11:43:15.834Z,37.65
2022-10-05T11:45:51.691Z,38.10
2022-10-05T11:48:21.499Z,38.10
2022-10-05T11:51:03.632Z,38.80
2022-10-05T11:53:37.734Z,37.34
2022-10-05T11:56:10.769Z,37.82
2022-10-05T11:58:41.365Z,37.38
2022-10-05T12:01:20.305Z,37.37
2022-10-05T12:04:07.339Z,36.81
2022-10-05T12:06:52.533Z,40.61
2022-10-05T12:09:36.279Z,38.61
2022-10-05T12:12:21.228Z,40.74
2022-10-05T12:14:47.924Z,37.89
2022-10-05T12:17:35.142Z,38.41
2022-10-05T12:20:34.036Z,38.00
2022-10-05T12:23:11.977Z,37.30
2022-10-05T12:25:44.346Z,38.08
2022-10-05T12:28:17.463Z,37.27
2022-10-05T12:30:59.166Z,37.09
2022-10-05T12:33:31.764Z,37.79
2022-10-05T12:36:01.940Z,36.64
2022-10-05T12:38:34.539Z,37.80
2022-10-05T12:41:13.665Z,36.42
2022-10-05T12:43:54.364Z,38.68
2022-10-05T12:46:24.134Z,37.80
2022-10-05T12:48:53.139Z,38.33
2022-10-05T12:51:30.497Z,36.23
2022-10-05T12:53:59.927Z,37.26
2022-10-05T12:56:37.363Z,40.06
2022-10-05T12:59:11.544Z,46.95
2022-10-05T13:01:41.304Z,39.98
2022-10-05T13:04:19.551Z,44.94
2022-10-05T13:06:46.202Z,40.40
2022-10-05T13:09:39.381Z,40.13
2022-10-05T13:15:32.726Z,38.67
2022-10-05T13:18:13.981Z,41.56
2022-10-05T13:20:47.072Z,39.87
2022-10-05T13:23:18.150Z,40.08
2022-10-05T13:25:53.600Z,41.72
2022-10-05T13:28:43.984Z,40.27
2022-10-05T13:31:19.125Z,40.40
2022-10-05T13:33:48.901Z,40.39
2022-10-05T13:36:35.997Z,41.73
2022-10-05T13:39:27.951Z,41.57
2022-10-05T13:42:00.155Z,40.20
2022-10-05T13:44:36.055Z,39.29
2022-10-05T13:47:16.914Z,39.48
2022-10-05T13:49:43.711Z,41.30
2022-10-05T13:52:29.174Z,40.55
2022-10-05T13:55:02.164Z,40.46
2022-10-05T13:57:45.391Z,42.48
2022-10-05T14:00:20.258Z,40.03
2022-10-05T14:02:53.693Z,40.28
2022-10-05T14:05:24.938Z,42.87
2022-10-05T14:07:58.646Z,42.42
2022-10-05T14:10:42.034Z,42.62
2022-10-05T14:13:17.692Z,43.26
2022-10-05T14:15:55.829Z,42.63
2022-10-05T14:18:23.998Z,42.21
2022-10-05T14:21:01.511Z,42.31
2022-10-05T14:23:29.226Z,42.56
2022-10-05T14:25:56.303Z,42.22
2022-10-05T14:28:27.823Z,40.87
2022-10-05T14:30:59.532Z,40.46
2022-10-05T14:33:27.784Z,40.76
2022-10-05T14:35:57.992Z,40.37
2022-10-05T14:38:32.622Z,40.43
2022-10-05T14:41:14.906Z,40.82
2022-10-05T14:43:49.512Z,40.82
2022-10-05T14:46:25.313Z,40.77
2022-10-05T14:49:14.035Z,41.56
2022-10-05T14:51:42.394Z,41.52
2022-10-05T14:54:30.493Z,41.40
2022-10-05T14:56:57.213Z,42.01
2022-10-05T14:59:38.346Z,43.83
2022-10-05T15:02:14.183Z,43.31
2022-10-05T15:04:44.502Z,43.60
2022-10-05T15:07:21.827Z,43.15
2022-10-05T15:09:51.812Z,43.84
2022-10-05T15:12:22.662Z,44.17
2022-10-05T15:14:51.575Z,44.45
2022-10-05T15:17:20.877Z,45.02
2022-10-05T15:19:47.465Z,45.63
2022-10-05T15:22:31.850Z,45.86
2022-10-05T15:25:22.399Z,46.78
2022-10-05T15:27:58.400Z,47.54
2022-10-05T15:30:25.126Z,48.64
2022-10-05T15:33:10.599Z,48.23
2022-10-05T15:35:48.858Z,49.17
2022-10-05T15:38:26.728Z,49.31
2022-10-05T15:40:59.636Z,49.80
2022-10-05T15:43:30.920Z,49.91
2022-10-05T15:46:07.086Z,49.89
2022-10-05T15:48:52.219Z,50.09
2022-10-05T15:51:24.658Z,50.40
2022-10-05T15:54:27.495Z,67.62
2022-10-05T15:57:06.630Z,62.68
2022-10-05T15:59:51.658Z,57.67
2022-10-05T16:02:22.831Z,54.58
2022-10-05T16:04:55.647Z,53.23
2022-10-05T16:07:46.938Z,55.45
2022-10-05T16:10:20.158Z,54.21
2022-10-05T16:12:46.768Z,54.03
2022-10-05T16:15:29.218Z,54.22
2022-10-05T16:18:06.147Z,55.73
2022-10-05T16:20:51.419Z,55.39
2022-10-05T16:23:36.881Z,57.02
2022-10-05T16:26:15.555Z,60.54
2022-10-05T16:28:42.225Z,61.62
2022-10-05T16:31:17.865Z,59.22
2022-10-05T16:33:48.171Z,59.17
2022-10-05T16:36:44.631Z,60.61
2022-10-05T16:39:31.496Z,61.74
2022-10-05T16:42:04.034Z,63.28
2022-10-05T16:44:53.487Z,65.20
2022-10-05T16:47:32.315Z,67.23
2022-10-05T16:50:02.133Z,67.41
2022-10-05T16:52:29.095Z,68.63
2022-10-05T16:54:57.524Z,69.95
2022-10-05T16:57:28.453Z,70.81
2022-10-05T17:00:01.151Z,70.80
2022-10-05T17:02:35.388Z,71.50
2022-10-05T17:05:05.028Z,70.89
2022-10-05T17:07:39.522Z,71.46
2022-10-05T17:10:25.067Z,71.49
2022-10-05T17:13:11.633Z,72.79
2022-10-05T17:15:50.231Z,74.42
2022-10-05T17:18:27.348Z,74.94
2022-10-05T17:20:53.926Z,75.39
2022-10-05T17:23:56.138Z,75.66
2022-10-05T17:26:22.878Z,74.69
2022-10-05T17:28:52.363Z,75.16
2022-10-05T17:31:21.894Z,75.51
2022-10-05T17:34:26.465Z,75.56
2022-10-05T17:37:19.776Z,75.69
2022-10-05T17:39:46.675Z,76.56
2022-10-05T17:42:39.626Z,76.49
2022-10-05T17:45:12.430Z,77.15
2022-10-05T17:47:57.552Z,77.65
2022-10-05T17:50:59.611Z,78.59
2022-10-05T17:53:55.219Z,78.00
2022-10-05T17:56:22.766Z,78.52
2022-10-05T17:58:55.456Z,78.71
2022-10-05T18:01:40.613Z,78.54
2022-10-05T18:04:13.070Z,78.90
2022-10-05T18:07:00.080Z,78.76
2022-10-05T18:09:27.844Z,79.64
2022-10-05T18:12:25.998Z,79.63
2022-10-05T18:15:00.803Z,81.34
2022-10-05T18:17:44.331Z,80.70
2022-10-05T18:20:14.893Z,80.44
2022-10-05T18:22:46.543Z,80.78
2022-10-05T18:25:31.928Z,80.86
2022-10-05T18:28:00.956Z,81.04
2022-10-05T18:30:31.177Z,81.10
2022-10-05T18:33:07.843Z,81.39
2022-10-05T18:35:38.214Z,82.10
2022-10-05T18:38:24.012Z,81.91
2022-10-05T18:40:56.262Z,82.15
2022-10-05T18:43:41.000Z,83.10
2022-10-05T18:46:13.599Z,83.39
2022-10-05T18:48:40.344Z,83.52
2022-10-05T18:51:14.786Z,83.78
2022-10-05T18:53:43.565Z,83.83
2022-10-05T18:56:20.577Z,82.95
2022-10-05T18:59:09.233Z,83.36
2022-10-05T19:01:59.935Z,84.01
2022-10-05T19:04:47.115Z,84.37
2022-10-05T19:07:23.008Z,83.39
2022-10-05T19:09:49.598Z,83.43
2022-10-05T19:12:37.012Z,84.32
2022-10-05T19:15:16.038Z,84.63
2022-10-05T19:17:56.297Z,85.13
2022-10-05T19:20:26.033Z,85.61
2022-10-05T19:23:17.867Z,85.14
2022-10-05T19:25:50.580Z,85.02
2022-10-05T19:28:29.294Z,85.28
2022-10-05T19:31:16.310Z,85.38
2022-10-05T19:33:46.047Z,85.90
2022-10-05T19:36:25.802Z,86.44
2022-10-05T19:38:55.570Z,86.44
2022-10-05T19:41:40.944Z,86.89
2022-10-05T19:44:13.633Z,87.11
2022-10-05T19:46:53.752Z,87.12
2022-10-05T19:49:46.481Z,86.21
2022-10-05T19:52:21.201Z,86.32
2022-10-05T19:54:49.925Z,86.86
2022-10-05T19:57:17.993Z,86.65
2022-10-05T19:59:46.877Z,86.38
2022-10-05T20:02:17.327Z,86.70
2022-10-05T20:04:45.622Z,86.63
2022-10-05T20:07:14.173Z,86.91
2022-10-05T20:09:54.644Z,87.12
2022-10-05T20:12:24.771Z,86.29
2022-10-05T20:15:26.589Z,86.73
2022-10-05T20:18:11.478Z,87.09
2022-10-05T20:20:43.294Z,86.69
2022-10-05T20:23:38.545Z,88.06
2022-10-05T20:26:23.937Z,87.34
2022-10-05T20:28:51.172Z,87.45
2022-10-05T20:31:20.175Z,86.76
2022-10-05T20:33:48.634Z,86.98
2022-10-05T20:36:15.243Z,87.61
2022-10-05T20:38:42.673Z,87.41
2022-10-05T20:41:09.595Z,87.33
2022-10-05T20:43:39.094Z,87.07
2022-10-05T20:46:06.467Z,85.69
2022-10-05T20:48:33.165Z,85.85
2022-10-05T20:51:00.410Z,85.89
2022-10-05T20:53:27.082Z,87.65
2022-10-05T20:55:53.771Z,88.24
2022-10-05T20:58:20.450Z,87.84
2022-10-05T21:01:05.891Z,87.49
2022-10-05T21:03:33.244Z,87.45
2022-10-05T21:06:00.038Z,86.94
2022-10-05T21:08:27.085Z,87.62
2022-10-05T21:10:53.906Z,88.39
2022-10-05T21:13:20.563Z,87.13
2022-10-05T21:15:47.258Z,87.84
2022-10-05T21:18:15.871Z,87.73
2022-10-05T21:20:42.486Z,86.72
2022-10-05T21:23:09.233Z,87.14
2022-10-05T21:25:35.932Z,87.55
2022-10-05T21:28:02.898Z,87.09
2022-10-05T21:30:29.602Z,87.54
2022-10-05T21:32:56.222Z,87.99
2022-10-05T21:35:22.929Z,88.32
2022-10-05T21:37:49.830Z,88.16
2022-10-05T21:40:17.033Z,87.54
2022-10-05T21:42:43.689Z,87.82
2022-10-05T21:45:10.624Z,87.61
2022-10-05T21:47:37.312Z,87.87
2022-10-05T21:50:05.420Z,87.87
2022-10-05T21:52:32.911Z,88.05
2022-10-05T21:54:59.591Z,87.66
2022-10-05T21:57:26.362Z,87.95
2022-10-05T21:59:53.171Z,88.26
2022-10-05T22:02:19.792Z,88.19
2022-10-05T22:04:46.384Z,88.91
2022-10-05T22:07:18.276Z,88.54
2022-10-05T22:09:51.526Z,88.47
2022-10-05T22:12:20.335Z,88.40
2022-10-05T22:14:47.462Z,88.96
2022-10-05T22:17:43.596Z,88.32
2022-10-05T22:20:12.139Z,87.70
2022-10-05T22:22:38.772Z,87.89
2022-10-05T22:25:05.982Z,88.13
2022-10-05T22:27:33.492Z,88.45
2022-10-05T22:30:01.263Z,87.26
2022-10-05T22:32:28.104Z,87.70
2022-10-05T22:34:54.742Z,88.80
2022-10-05T22:37:21.435Z,87.96
2022-10-05T22:39:49.132Z,88.56
2022-10-05T22:42:15.834Z,88.25
2022-10-05T22:44:42.583Z,87.81
2022-10-05T22:47:09.555Z,87.42
2022-10-05T22:49:36.303Z,88.26
2022-10-05T22:52:03.005Z,87.36
2022-10-05T22:54:31.739Z,86.92
2022-10-05T22:56:59.994Z,87.10
2022-10-05T22:59:26.833Z,86.87
2022-10-05T23:01:53.831Z,86.86
2022-10-05T23:04:20.684Z,86.52
2022-10-05T23:06:47.505Z,86.94
2022-10-05T23:09:14.376Z,86.42
2022-10-05T23:11:41.146Z,86.83
2022-10-05T23:14:07.948Z,85.97
2022-10-05T23:16:34.702Z,86.11
2022-10-05T23:19:01.549Z,86.66
2022-10-05T23:21:29.457Z,85.95
2022-10-05T23:23:56.164Z,86.33
2022-10-05T23:26:24.097Z,86.58
2022-10-05T23:28:50.961Z,87.21
2022-10-05T23:31:19.209Z,87.00
2022-10-05T23:33:45.933Z,86.60
2022-10-05T23:36:13.943Z,87.59
2022-10-05T23:38:40.900Z,86.84
2022-10-05T23:41:08.886Z,86.79
2022-10-05T23:43:36.930Z,86.84
2022-10-05T23:46:05.051Z,86.74
2022-10-05T23:48:32.499Z,86.70
2022-10-05T23:50:59.914Z,86.79
2022-10-05T23:53:26.902Z,86.78
2022-10-05T23:55:53.793Z,87.58
2022-10-05T23:58:21.045Z,87.56
